Time;durP1;ratioP1;P1;durP2;ratioP2;P2;SDS_P1;SDS_P2;PMS_P1;PMS_P2;Temp;Humidity;BMP_temperature;BMP_pressure;BME280_temperature;BME280_humidity;BME280_pressure;Samples;Min_cycle;Max_cycle;Signal;HPM_P1;HPM_P2
2022/08/26 05:10:08;;;;;;;;;16.67;16.00;;;;;23.59;55.60;101439.22;5097577;27;45814;-73
2022/08/26 05:12:33;;;;;;;;;15.33;13.67;;;;;23.74;55.53;101450.41;5076305;27;45455;-72
2022/08/26 05:14:59;;;;;;;;;21.67;16.00;;;;;23.92;55.17;101455.84;5087606;27;45567;-73
2022/08/26 05:17:26;;;;;;;;;14.00;12.00;;;;;24.11;55.03;101460.28;5088438;27;45395;-75
2022/08/26 05:19:52;;;;;;;;;13.00;12.00;;;;;24.29;54.88;101468.44;5088867;27;45365;-75
2022/08/26 05:22:18;;;;;;;;;13.00;13.00;;;;;24.50;54.73;101469.97;5083401;27;45473;-74
2022/08/26 05:24:45;;;;;;;;;17.67;13.33;;;;;24.75;54.13;101470.13;5074997;27;45385;-74
2022/08/26 05:27:10;;;;;;;;;14.00;14.00;;;;;24.98;53.71;101470.47;5096106;27;45490;-74
2022/08/26 05:29:35;;;;;;;;;14.33;12.33;;;;;25.20;53.65;101468.22;5085601;27;46177;-74
2022/08/26 05:32:01;;;;;;;;;18.33;18.33;;;;;25.35;52.81;101465.75;5083647;27;45446;-75
2022/08/26 05:34:26;;;;;;;;;17.00;15.67;;;;;25.48;52.43;101470.72;5076757;27;45953;-73
2022/08/26 05:36:52;;;;;;;;;16.00;16.00;;;;;25.59;52.49;101469.56;5087408;27;45578;-74
2022/08/26 05:39:17;;;;;;;;;16.00;14.00;;;;;25.70;52.51;101470.31;5086902;27;45606;-74
2022/08/26 05:41:43;;;;;;;;;17.33;17.33;;;;;25.80;51.98;101473.72;5089277;27;45458;-73
2022/08/26 05:44:11;;;;;;;;;14.67;14.67;;;;;25.90;52.10;101479.00;5093395;27;45410;-73
2022/08/26 05:46:38;;;;;;;;;13.00;13.00;;;;;26.03;51.70;101484.81;5080182;27;45405;-74
2022/08/26 05:49:04;;;;;;;;;12.33;12.33;;;;;26.15;51.27;101481.75;5083649;27;46581;-74
2022/08/26 05:51:29;;;;;;;;;13.33;12.33;;;;;26.26;50.95;101486.91;5079549;27;45477;-73
2022/08/26 05:53:55;;;;;;;;;12.33;12.33;;;;;26.36;51.03;101485.91;5083215;27;45493;-73
2022/08/26 05:56:26;;;;;;;;;15.67;14.00;;;;;26.42;50.83;101488.81;5087288;27;45946;-74
2022/08/26 05:58:52;;;;;;;;;14.00;14.00;;;;;26.48;50.90;101491.84;5089186;27;46355;-74
2022/08/26 06:01:21;;;;;;;;;14.67;14.67;;;;;26.54;50.75;101486.59;5091216;27;45390;-74
2022/08/26 06:03:50;;;;;;;;;16.33;13.33;;;;;26.61;50.07;101492.19;5086497;27;46841;-74
2022/08/26 06:06:32;;;;;;;;;12.33;11.67;;;;;26.67;50.45;101491.50;5084175;27;45497;-71
2022/08/26 06:08:58;;;;;;;;;10.33;9.67;;;;;26.70;50.10;101487.59;5078652;27;45640;-72
2022/08/26 06:11:26;;;;;;;;;15.33;15.00;;;;;26.72;50.01;101490.97;5090418;27;45366;-73
2022/08/26 06:13:52;;;;;;;;;16.00;16.00;;;;;26.76;49.84;101489.59;5092575;27;45447;-72
2022/08/26 06:16:21;;;;;;;;;16.67;14.67;;;;;26.83;49.49;101489.78;5090652;27;45383;-74
2022/08/26 06:18:47;;;;;;;;;13.33;11.33;;;;;26.83;49.42;101490.63;5088526;27;45433;-75
2022/08/26 06:21:24;;;;;;;;;12.33;12.33;;;;;26.82;49.01;101494.34;5071098;28;45345;-72
2022/08/26 06:26:36;;;;;;;;;10.33;10.33;;;;;26.78;49.19;101500.34;5076852;28;45376;-74
2022/08/26 06:29:03;;;;;;;;;12.00;11.00;;;;;26.79;49.13;101491.13;5070230;28;46230;-73
2022/08/26 06:31:31;;;;;;;;;12.33;12.33;;;;;26.81;49.65;101498.09;5066630;27;45505;-74
2022/08/26 06:33:57;;;;;;;;;10.33;9.67;;;;;26.83;49.15;101496.06;5070014;28;45346;-72
2022/08/26 06:36:25;;;;;;;;;15.67;11.33;;;;;26.87;49.41;101498.44;5073184;27;45424;-72
2022/08/26 06:38:53;;;;;;;;;13.33;12.00;;;;;26.88;48.69;101489.22;5067178;28;45471;-72
2022/08/26 06:41:20;;;;;;;;;9.00;9.00;;;;;26.89;49.26;101499.97;5068291;28;45427;-72
2022/08/26 06:43:45;;;;;;;;;17.00;14.00;;;;;26.95;48.71;101496.59;5072957;27;45645;-71
2022/08/26 06:46:15;;;;;;;;;10.67;10.33;;;;;27.02;48.56;101499.44;5065245;28;45522;-73
2022/08/26 06:48:40;;;;;;;;;9.33;9.33;;;;;27.02;48.97;101494.00;5071184;27;46511;-72
2022/08/26 06:51:12;;;;;;;;;9.00;9.00;;;;;27.02;48.71;101504.06;5076852;27;45451;-72
2022/08/26 06:53:39;;;;;;;;;12.00;12.00;;;;;27.06;48.36;101499.97;5068885;28;45927;-72
2022/08/26 06:56:07;;;;;;;;;11.67;11.67;;;;;27.09;48.71;101505.06;5076240;27;45373;-72
2022/08/26 06:58:34;;;;;;;;;11.00;11.00;;;;;27.12;48.61;101495.69;5067550;28;46400;-73
2022/08/26 07:01:00;;;;;;;;;14.00;13.67;;;;;27.14;48.05;101502.66;5069187;27;45637;-74
2022/08/26 07:03:25;;;;;;;;;12.00;12.00;;;;;27.12;48.70;101502.00;5076031;27;45588;-74
2022/08/26 07:05:51;;;;;;;;;14.00;13.33;;;;;27.09;48.22;101503.19;5069125;27;46106;-73
2022/08/26 07:08:16;;;;;;;;;14.33;14.00;;;;;27.10;47.92;101501.31;5073926;28;46629;-73
2022/08/26 07:10:42;;;;;;;;;11.67;11.33;;;;;27.09;48.55;101510.50;5076579;27;45401;-72
2022/08/26 07:13:08;;;;;;;;;11.00;11.00;;;;;27.07;47.85;101512.56;5065642;27;45386;-72
2022/08/26 07:15:34;;;;;;;;;13.00;12.00;;;;;26.98;47.83;101506.28;5076770;28;45490;-73
2022/08/26 07:18:00;;;;;;;;;14.33;12.67;;;;;26.97;48.38;101512.75;5072895;28;45318;-72
2022/08/26 07:20:26;;;;;;;;;11.33;11.33;;;;;27.00;47.83;101512.41;5066256;28;45411;-72
2022/08/26 07:22:51;;;;;;;;;12.33;11.00;;;;;26.98;48.37;101521.78;5080192;27;45586;-73
2022/08/26 07:25:16;;;;;;;;;15.67;14.00;;;;;26.95;47.66;101518.38;5071108;28;45534;-73
2022/08/26 07:27:42;;;;;;;;;10.00;10.00;;;;;26.92;48.30;101520.56;5069447;28;47353;-74
2022/08/26 07:30:08;;;;;;;;;11.00;11.00;;;;;27.02;48.60;101528.59;5057408;27;45373;-72
2022/08/26 07:32:33;;;;;;;;;9.67;9.67;;;;;27.07;47.60;101513.44;5064657;28;45773;-74
2022/08/26 07:34:59;;;;;;;;;11.00;11.00;;;;;27.16;48.24;101514.25;5063875;28;45408;-75
2022/08/26 07:37:24;;;;;;;;;11.67;11.67;;;;;27.24;47.60;101516.09;5065097;27;46498;-75
2022/08/26 07:39:50;;;;;;;;;10.00;9.33;;;;;27.23;47.05;101514.41;5057097;28;45447;-75
2022/08/26 07:42:17;;;;;;;;;9.67;9.67;;;;;27.28;47.19;101519.31;5069669;27;45501;-75
2022/08/26 07:44:43;;;;;;;;;9.00;9.00;;;;;27.30;47.63;101514.56;5065219;27;45458;-75
2022/08/26 07:47:09;;;;;;;;;9.67;9.00;;;;;27.32;47.52;101516.06;5065320;28;46429;-72
2022/08/26 07:49:35;;;;;;;;;9.67;9.00;;;;;27.32;46.75;101515.22;5061356;28;45934;-72
2022/08/26 07:52:01;;;;;;;;;9.33;9.33;;;;;27.36;46.75;101520.16;5064236;28;45873;-74
2022/08/26 07:54:27;;;;;;;;;9.67;9.67;;;;;27.37;47.33;101518.25;5061294;28;45767;-73
2022/08/26 07:56:53;;;;;;;;;10.67;10.67;;;;;27.45;47.17;101525.56;5062232;28;45892;-72
2022/08/26 07:59:18;;;;;;;;;9.33;8.00;;;;;27.48;46.39;101531.53;5064781;28;45473;-72
2022/08/26 08:01:44;;;;;;;;;10.33;9.33;;;;;27.48;46.50;101527.94;5064390;28;45483;-72
2022/08/26 08:04:12;;;;;;;;;12.33;10.00;;;;;27.53;46.08;101527.38;5064819;28;45439;-71
2022/08/26 08:06:37;;;;;;;;;11.33;10.33;;;;;27.53;46.13;101522.81;5066265;28;47595;-73
2022/08/26 08:09:04;;;;;;;;;11.67;11.00;;;;;27.53;46.88;101522.81;5064149;28;45434;-75
2022/08/26 08:11:30;;;;;;;;;11.00;11.00;;;;;27.48;46.79;101528.78;5064357;28;45517;-72
2022/08/26 08:13:56;;;;;;;;;9.00;9.00;;;;;27.45;46.22;101526.41;5063831;28;45470;-72
2022/08/26 08:16:23;;;;;;;;;11.00;11.00;;;;;27.52;46.07;101531.16;5061681;27;45515;-72
2022/08/26 08:18:48;;;;;;;;;10.33;10.33;;;;;27.52;46.34;101533.88;5061516;28;45570;-73
2022/08/26 08:21:14;;;;;;;;;12.00;9.00;;;;;27.52;46.66;101528.41;5063713;28;45473;-73
2022/08/26 08:23:39;;;;;;;;;10.67;10.67;;;;;27.55;46.19;101533.53;5066966;28;45559;-71
2022/08/26 08:26:07;;;;;;;;;9.67;8.00;;;;;27.55;46.12;101530.81;5061174;28;46424;-72
2022/08/26 08:28:33;;;;;;;;;10.00;9.33;;;;;27.55;45.78;101530.81;5065227;28;46538;-71
2022/08/26 08:30:59;;;;;;;;;7.33;7.33;;;;;27.58;45.70;101530.44;5064223;28;46043;-73
2022/08/26 08:33:24;;;;;;;;;10.67;9.00;;;;;27.58;45.59;101524.97;5061440;27;45404;-74
2022/08/26 08:35:50;;;;;;;;;9.00;9.00;;;;;27.61;46.17;101522.81;5063000;28;46272;-75
2022/08/26 08:38:16;;;;;;;;;10.67;9.33;;;;;27.62;46.12;101521.78;5068623;27;45957;-74
2022/08/26 08:40:44;;;;;;;;;10.67;9.67;;;;;27.61;45.57;101525.53;5067399;28;45532;-75
2022/08/26 08:43:13;;;;;;;;;11.33;11.33;;;;;27.60;45.81;101517.53;5063270;27;45425;-75
2022/08/26 08:45:41;;;;;;;;;10.67;10.67;;;;;27.57;45.59;101524.16;5063669;28;45570;-74
2022/08/26 08:48:28;;;;;;;;;8.00;7.33;;;;;27.58;45.32;101523.13;5060258;27;45618;-75
2022/08/26 08:51:24;;;;;;;;;10.00;10.00;;;;;27.58;45.14;101525.84;5064391;28;45503;-73
2022/08/26 08:53:52;;;;;;;;;9.00;9.00;;;;;27.53;45.93;101524.66;5061741;28;45591;-74
2022/08/26 08:56:30;;;;;;;;;8.00;8.00;;;;;27.52;45.59;101520.25;5067895;27;48114;-72
2022/08/26 08:59:08;;;;;;;;;8.33;8.33;;;;;27.53;45.38;101525.53;5061636;28;45589;-73
2022/08/26 09:01:46;;;;;;;;;10.67;9.33;;;;;27.56;45.46;101527.03;5059434;28;45496;-72
2022/08/26 09:04:17;;;;;;;;;8.00;8.00;;;;;27.59;45.81;101519.34;5060783;28;45577;-73
2022/08/26 09:06:48;;;;;;;;;11.33;10.00;;;;;27.64;45.17;101527.06;5061938;27;45541;-73
2022/08/26 09:09:22;;;;;;;;;10.33;10.33;;;;;27.69;45.07;101524.63;5057019;28;45454;-74
2022/08/26 09:11:48;;;;;;;;;8.67;7.67;;;;;27.68;45.60;101519.34;5063451;27;45522;-73
2022/08/26 09:14:13;;;;;;;;;4.00;4.00;;;;;27.77;45.44;101517.44;5059915;28;45699;-74
2022/08/26 09:16:50;;;;;;;;;11.00;11.00;;;;;27.87;44.80;101521.63;5064955;27;45375;-73
2022/08/26 09:19:29;;;;;;;;;10.00;10.00;;;;;27.89;45.23;101516.00;5069397;28;45438;-73
2022/08/26 09:21:59;;;;;;;;;12.00;12.00;;;;;27.88;45.00;101522.50;5069296;27;45517;-72
2022/08/26 09:24:26;;;;;;;;;11.00;9.67;;;;;27.93;44.46;101521.94;5062540;28;45558;-71
2022/08/26 09:26:51;;;;;;;;;8.67;8.67;;;;;27.96;44.61;101516.13;5065270;28;45571;-72
2022/08/26 09:29:29;;;;;;;;;7.67;7.67;;;;;27.97;45.07;101520.56;5084271;27;45525;-73
2022/08/26 09:32:22;;;;;;;;;12.00;10.33;;;;;27.95;45.13;101515.28;5065935;28;45318;-72
2022/08/26 09:34:56;;;;;;;;;13.33;12.67;;;;;27.93;44.51;101511.03;5064974;28;45506;-74
2022/08/26 09:37:48;;;;;;;;;11.33;10.33;;;;;27.95;45.02;101509.81;5063891;28;46229;-72
2022/08/26 09:40:33;;;;;;;;;10.00;9.67;;;;;27.99;44.90;101504.84;5061071;28;45576;-73
2022/08/26 09:43:16;;;;;;;;;10.33;10.33;;;;;28.05;44.86;101509.59;5080514;27;45470;-73
2022/08/26 09:45:46;;;;;;;;;11.33;11.33;;;;;28.11;44.33;101500.69;5062849;27;45509;-72
2022/08/26 09:48:24;;;;;;;;;11.33;11.33;;;;;28.17;43.89;101507.31;5058157;28;45723;-70
2022/08/26 09:50:55;;;;;;;;;11.67;11.33;;;;;28.21;43.71;101503.19;5061198;28;45835;-70
2022/08/26 09:53:27;;;;;;;;;11.33;11.33;;;;;28.26;44.37;101503.50;5059460;28;45500;-71
2022/08/26 09:56:11;;;;;;;;;10.00;9.33;;;;;28.31;43.75;101502.13;5063909;27;45432;-72
2022/08/26 09:58:43;;;;;;;;;9.00;9.00;;;;;28.38;44.41;101509.38;5064948;27;46245;-71
2022/08/26 10:01:27;;;;;;;;;10.00;10.00;;;;;28.40;43.87;101504.59;5064536;28;45959;-71
2022/08/26 10:04:04;;;;;;;;;10.33;10.00;;;;;28.49;44.09;101505.34;5061015;28;45436;-72
2022/08/26 10:06:31;;;;;;;;;9.33;8.33;;;;;28.50;43.23;101498.03;5061040;27;45438;-70
2022/08/26 10:08:59;;;;;;;;;7.67;7.67;;;;;28.56;43.41;101501.91;5065073;27;46736;-71
2022/08/26 10:11:39;;;;;;;;;9.33;8.33;;;;;28.56;43.34;101494.53;5067778;27;45456;-71
2022/08/26 10:14:12;;;;;;;;;9.33;9.33;;;;;28.63;43.35;101505.59;5060231;27;45557;-70
2022/08/26 10:16:47;;;;;;;;;9.00;9.00;;;;;28.70;43.60;101502.97;5058519;27;45497;-71
2022/08/26 10:19:18;;;;;;;;;7.00;6.67;;;;;28.77;42.72;101501.19;5062396;28;46128;-71
2022/08/26 10:21:56;;;;;;;;;8.33;8.33;;;;;28.80;42.65;101498.94;5067238;28;45852;-73
2022/08/26 10:24:29;;;;;;;;;7.67;7.67;;;;;28.81;42.55;101499.75;5065699;28;45486;-73
2022/08/26 10:27:04;;;;;;;;;8.00;8.00;;;;;28.84;42.90;101504.88;5072009;27;45748;-73
2022/08/26 10:29:47;;;;;;;;;10.67;8.33;;;;;28.85;42.56;101503.81;5065445;27;46870;-70
2022/08/26 10:32:30;;;;;;;;;7.67;7.67;;;;;28.88;42.58;101499.88;5066499;27;45414;-71
2022/08/26 10:34:55;;;;;;;;;10.67;9.33;;;;;28.88;42.74;101498.03;5069421;27;45491;-73
2022/08/26 10:37:26;;;;;;;;;9.33;7.67;;;;;28.88;42.74;101500.75;5066207;27;45487;-69
2022/08/26 10:39:57;;;;;;;;;10.00;8.33;;;;;28.90;42.26;101498.69;5066730;27;47349;-71
2022/08/26 10:42:34;;;;;;;;;8.00;8.00;;;;;28.93;42.46;101502.91;5061443;27;45531;-71
2022/08/26 10:45:14;;;;;;;;;7.67;7.67;;;;;28.97;42.56;101503.41;5068634;27;45607;-71
2022/08/26 10:47:45;;;;;;;;;7.00;7.00;;;;;29.00;41.91;101492.94;5070237;27;46690;-72
2022/08/26 10:50:10;;;;;;;;;7.00;7.00;;;;;29.06;42.22;101488.63;5056236;27;45832;-71
2022/08/26 10:52:56;;;;;;;;;8.67;8.67;;;;;29.12;41.74;101495.19;5068191;27;45439;-71
2022/08/26 10:55:28;;;;;;;;;9.33;8.00;;;;;29.17;42.33;101484.56;5062451;27;45386;-71
2022/08/26 10:58:16;;;;;;;;;7.00;7.00;;;;;29.22;41.87;101486.72;5061049;27;45410;-70
2022/08/26 11:03:51;;;;;;;;;7.33;7.00;;;;;29.32;41.69;101484.56;5062082;27;45475;-72
2022/08/26 11:06:17;;;;;;;;;10.33;10.00;;;;;29.32;41.47;101481.81;5062821;27;45553;-72
2022/08/26 11:08:51;;;;;;;;;8.33;8.33;;;;;29.32;41.76;101487.28;5062795;27;45461;-74
2022/08/26 11:11:39;;;;;;;;;9.67;9.67;;;;;29.37;41.74;101471.16;5062868;27;48083;-72
2022/08/26 11:14:31;;;;;;;;;8.33;8.33;;;;;29.39;40.98;101480.00;5069406;27;45466;-74
2022/08/26 11:16:57;;;;;;;;;9.00;7.67;;;;;29.39;41.40;101470.97;5061023;27;45820;-71
2022/08/26 11:19:36;;;;;;;;;10.00;9.67;;;;;29.46;41.69;101480.94;5059350;27;45554;-72
2022/08/26 11:22:10;;;;;;;;;8.00;8.00;;;;;29.53;40.98;101474.75;5066475;27;45460;-70
2022/08/26 11:24:43;;;;;;;;;9.67;9.67;;;;;29.58;40.92;101481.34;5059362;27;45578;-71
2022/08/26 11:27:35;;;;;;;;;7.67;6.33;;;;;29.60;41.40;101462.00;5065705;27;45661;-72
2022/08/26 11:30:20;;;;;;;;;8.00;8.00;;;;;29.68;40.76;101461.88;5061178;27;45446;-70
2022/08/26 11:32:49;;;;;;;;;6.00;6.00;;;;;29.73;40.45;101458.56;5064750;27;45473;-71
2022/08/26 11:35:20;;;;;;;;;7.33;7.33;;;;;29.77;41.05;101462.59;5059292;28;45538;-71
2022/08/26 11:37:54;;;;;;;;;7.00;7.00;;;;;29.76;40.81;101468.28;5063677;28;45402;-70
2022/08/26 11:40:26;;;;;;;;;10.00;10.00;;;;;29.71;41.32;101464.22;5056417;28;45442;-71
2022/08/26 11:42:56;;;;;;;;;9.67;9.67;;;;;29.68;41.09;101456.41;5068716;27;46211;-71
2022/08/26 11:45:45;;;;;;;;;7.67;7.67;;;;;29.64;40.89;101456.97;5061863;27;45715;-71
2022/08/26 11:48:29;;;;;;;;;10.00;8.33;;;;;29.65;41.25;101450.47;5065185;28;45434;-71
2022/08/26 11:51:05;;;;;;;;;7.67;7.67;;;;;29.65;40.58;101455.94;5061488;27;45557;-71
2022/08/26 11:53:34;;;;;;;;;10.33;9.67;;;;;29.66;40.58;101457.63;5055901;28;46320;-71
2022/08/26 11:56:05;;;;;;;;;9.67;9.67;;;;;29.64;40.80;101448.78;5064587;28;45455;-71
2022/08/26 12:50:08;;;;;;;;;8.67;8.67;;;;;28.57;43.06;101405.28;5034397;23;45852;-74
2022/08/26 12:52:42;;;;;;;;;10.67;8.33;;;;;28.42;43.01;101406.13;4932290;28;45439;-72
2022/08/26 12:55:34;;;;;;;;;10.33;8.33;;;;;28.32;43.37;101400.91;4934195;28;45544;-72
2022/08/26 12:58:14;;;;;;;;;7.33;7.33;;;;;28.26;43.69;101394.34;4934652;28;45766;-73
2022/08/26 13:00:42;;;;;;;;;9.67;9.33;;;;;28.18;43.93;101388.06;4933713;28;45572;-74
2022/08/26 13:03:27;;;;;;;;;9.33;9.33;;;;;28.07;44.10;101390.19;4932114;28;45422;-72
2022/08/26 13:05:52;;;;;;;;;8.67;7.00;;;;;28.05;44.43;101385.97;4932521;28;45531;-75
2022/08/26 13:08:26;;;;;;;;;10.00;8.00;;;;;28.04;44.03;101382.41;4934055;28;45624;-72
2022/08/26 13:11:11;;;;;;;;;10.00;10.00;;;;;28.07;43.95;101376.56;4930887;28;46412;-73
2022/08/26 13:13:37;;;;;;;;;8.67;8.67;;;;;28.06;44.75;101383.06;4931705;28;45500;-75
2022/08/26 13:16:03;;;;;;;;;13.00;10.00;;;;;28.05;44.52;101375.91;4931993;28;46641;-74
2022/08/26 13:18:28;;;;;;;;;11.67;9.67;;;;;28.04;44.15;101374.22;4932756;28;45803;-73
2022/08/26 13:20:54;;;;;;;;;9.67;8.67;;;;;28.05;44.16;101366.84;4930997;28;46584;-74
2022/08/26 13:23:22;;;;;;;;;5.67;5.67;;;;;28.05;44.73;101367.72;4934012;28;45442;-73
2022/08/26 13:25:48;;;;;;;;;9.00;8.00;;;;;28.06;44.50;101366.69;4931183;28;45772;-73
2022/08/26 13:28:13;;;;;;;;;8.33;8.00;;;;;28.08;44.22;101364.59;4932568;28;45338;-74
2022/08/26 13:30:41;;;;;;;;;9.00;9.00;;;;;28.10;44.66;101357.09;4933208;28;46325;-74
2022/08/26 13:33:07;;;;;;;;;8.67;6.67;;;;;28.11;44.12;101366.13;4936563;28;45461;-73
2022/08/26 13:35:32;;;;;;;;;6.00;6.00;;;;;28.11;44.23;101358.78;4935234;28;45358;-74
2022/08/26 13:37:58;;;;;;;;;8.67;8.33;;;;;28.10;44.01;101351.63;4937194;28;45490;-74
2022/08/26 13:40:24;;;;;;;;;7.67;7.67;;;;;28.08;44.80;101348.22;4936518;28;54231;-74
2022/08/26 13:42:50;;;;;;;;;9.00;9.00;;;;;28.10;44.81;101351.63;4934430;28;46123;-74
2022/08/26 13:45:15;;;;;;;;;10.67;9.00;;;;;28.12;44.08;101341.38;4937387;28;45354;-73
2022/08/26 13:47:41;;;;;;;;;11.00;11.00;;;;;28.14;44.75;101335.75;4936517;28;45377;-73
2022/08/26 13:50:06;;;;;;;;;10.00;10.00;;;;;28.18;44.28;101338.94;4935441;28;45453;-73
2022/08/26 13:52:31;;;;;;;;;11.67;10.00;;;;;28.17;44.78;101343.56;4936149;28;45463;-74
2022/08/26 13:54:59;;;;;;;;;6.33;6.33;;;;;28.14;44.17;101336.59;4936263;28;45514;-76
2022/08/26 13:57:26;;;;;;;;;9.00;9.00;;;;;28.12;44.35;101332.34;4934343;28;45486;-75
2022/08/26 13:59:52;;;;;;;;;9.00;9.00;;;;;28.08;44.12;101329.13;4936855;28;46191;-75
2022/08/26 14:02:18;;;;;;;;;0.00;0.00;;;;;28.04;44.99;101327.84;4934873;28;45485;-75
2022/08/26 14:04:43;;;;;;;;;9.67;7.67;;;;;28.01;44.31;101331.78;4935398;28;45720;-76
2022/08/26 14:07:09;;;;;;;;;10.00;8.33;;;;;28.00;44.92;101334.69;4935806;28;45425;-72
2022/08/26 14:09:34;;;;;;;;;9.00;7.33;;;;;28.01;44.44;101318.13;4934893;28;46091;-75
2022/08/26 14:11:59;;;;;;;;;8.00;8.00;;;;;28.06;45.06;101327.63;4934815;28;49569;-74
2022/08/26 14:14:25;;;;;;;;;8.33;8.33;;;;;28.10;44.69;101320.75;4936224;28;45925;-73
2022/08/26 14:16:51;;;;;;;;;8.33;7.00;;;;;28.12;44.18;101321.44;4933843;28;45864;-73
2022/08/26 14:19:17;;;;;;;;;11.67;7.00;;;;;28.15;44.64;101319.19;4936954;28;45411;-73
2022/08/26 14:21:42;;;;;;;;;10.00;8.67;;;;;28.15;44.65;101316.47;4936725;28;45410;-73
2022/08/26 14:24:07;;;;;;;;;10.00;9.00;;;;;28.16;45.05;101314.59;4931761;28;45362;-74
2022/08/26 14:26:33;;;;;;;;;10.00;8.67;;;;;28.19;44.35;101314.19;4931739;28;45470;-74
2022/08/26 14:28:59;;;;;;;;;6.67;6.67;;;;;28.23;44.20;101296.41;4936640;28;45454;-74
2022/08/26 14:31:27;;;;;;;;;8.33;8.33;;;;;28.27;44.67;101299.63;4937207;28;45435;-75
2022/08/26 14:33:58;;;;;;;;;9.00;9.00;;;;;28.32;44.48;101293.63;4933862;28;45507;-75
2022/08/26 14:36:32;;;;;;;;;8.00;8.00;;;;;28.34;44.46;101297.00;4934100;28;45492;-74
2022/08/26 14:39:07;;;;;;;;;9.33;7.67;;;;;28.36;44.70;101298.50;4936942;28;45993;-75
2022/08/26 14:41:37;;;;;;;;;8.00;8.00;;;;;28.39;44.04;101289.97;4935863;28;45342;-75
2022/08/26 14:44:05;;;;;;;;;7.67;6.67;;;;;28.39;44.73;101291.84;4937956;28;45715;-74
2022/08/26 14:46:40;;;;;;;;;8.00;6.67;;;;;28.41;44.35;101300.69;4937121;28;45568;-74
2022/08/26 14:49:05;;;;;;;;;7.00;6.67;;;;;28.41;44.55;101292.50;4931453;28;48748;-75
2022/08/26 14:51:31;;;;;;;;;8.00;7.00;;;;;28.41;44.98;101295.25;4936607;28;45402;-75
2022/08/26 14:54:11;;;;;;;;;7.67;7.33;;;;;28.41;44.89;101285.16;4937090;28;45568;-74
2022/08/26 14:56:38;;;;;;;;;7.00;7.00;;;;;28.46;44.80;101283.75;4933931;28;45521;-74
2022/08/26 14:59:04;;;;;;;;;7.67;7.67;;;;;28.48;44.88;101279.78;4933276;28;46259;-73
2022/08/26 15:01:31;;;;;;;;;9.33;8.00;;;;;28.48;44.95;101279.78;4932736;28;46038;-74
2022/08/26 15:03:57;;;;;;;;;6.33;6.33;;;;;28.51;44.72;101282.16;4937085;28;45497;-74
2022/08/26 15:06:23;;;;;;;;;7.33;7.00;;;;;28.54;44.09;101280.91;4932391;28;45576;-74
2022/08/26 15:08:48;;;;;;;;;7.00;7.00;;;;;28.51;44.65;101276.69;4935622;28;46282;-74
2022/08/26 15:11:17;;;;;;;;;7.33;6.00;;;;;28.54;44.63;101278.19;4935163;28;45621;-74
2022/08/26 15:13:43;;;;;;;;;7.67;7.67;;;;;28.51;44.28;101273.94;4935802;28;45875;-74
2022/08/26 15:16:09;;;;;;;;;5.33;5.33;;;;;28.52;44.45;101274.78;4935375;28;45426;-75
2022/08/26 15:18:35;;;;;;;;;8.67;8.67;;;;;28.51;44.46;101273.09;4934494;28;47100;-75
2022/08/26 15:21:02;;;;;;;;;7.67;7.00;;;;;28.53;44.44;101274.59;4934774;28;45430;-75
2022/08/26 15:23:27;;;;;;;;;7.33;7.33;;;;;28.53;44.61;101273.78;4935861;28;45388;-75
2022/08/26 15:25:53;;;;;;;;;5.00;5.00;;;;;28.57;44.35;101277.78;4934218;28;45352;-75
2022/08/26 15:28:18;;;;;;;;;10.00;10.00;;;;;28.58;44.11;101268.59;4936208;28;46688;-74
2022/08/26 15:30:44;;;;;;;;;6.00;6.00;;;;;28.59;44.64;101267.53;4933314;28;45530;-75
2022/08/26 15:33:09;;;;;;;;;9.00;9.00;;;;;28.55;43.80;101252.56;4934360;28;45441;-75
2022/08/26 15:35:34;;;;;;;;;6.00;6.00;;;;;28.56;44.39;101251.53;4935500;28;45504;-74
2022/08/26 15:38:00;;;;;;;;;7.00;7.00;;;;;28.53;43.68;101252.75;4934024;28;47037;-74
2022/08/26 15:40:25;;;;;;;;;7.33;7.33;;;;;28.49;43.98;101251.44;4935127;28;45567;-74
2022/08/26 15:42:50;;;;;;;;;5.00;5.00;;;;;28.49;43.87;101253.34;4934250;28;46480;-74
2022/08/26 15:45:16;;;;;;;;;7.33;7.00;;;;;28.44;44.47;101250.34;4935986;28;45536;-74
2022/08/26 15:47:41;;;;;;;;;7.33;7.33;;;;;28.39;44.52;101249.00;4935321;28;46106;-73
2022/08/26 15:50:07;;;;;;;;;10.00;9.00;;;;;28.36;44.00;101249.38;4935094;28;45462;-73
2022/08/26 15:52:32;;;;;;;;;9.00;6.00;;;;;28.36;44.40;101249.38;4934420;28;47177;-73
2022/08/26 15:54:58;;;;;;;;;6.00;6.00;;;;;28.36;43.91;101249.38;4934375;28;45403;-74
2022/08/26 15:57:23;;;;;;;;;6.00;6.00;;;;;28.34;44.53;101251.47;4933084;28;47074;-74
2022/08/26 15:59:48;;;;;;;;;7.00;7.00;;;;;28.31;44.68;101257.28;4935489;28;45489;-74
2022/08/26 16:02:14;;;;;;;;;7.67;7.67;;;;;28.33;44.74;101244.31;4934272;28;45589;-74
2022/08/26 16:04:39;;;;;;;;;7.00;7.00;;;;;28.35;44.45;101241.38;4931358;28;46763;-74
2022/08/26 16:07:04;;;;;;;;;6.00;6.00;;;;;28.35;44.47;101241.38;4932832;28;46685;-74
2022/08/26 16:09:30;;;;;;;;;6.67;6.67;;;;;28.37;43.88;101233.88;4931656;28;45458;-73
2022/08/26 16:11:56;;;;;;;;;8.00;8.00;;;;;28.37;43.90;101233.88;4934964;28;45600;-73
2022/08/26 16:14:21;;;;;;;;;7.67;7.67;;;;;28.37;43.99;101233.88;4934033;28;45547;-74
2022/08/26 16:16:47;;;;;;;;;7.00;7.00;;;;;28.38;44.16;101236.41;4932698;28;46296;-74
2022/08/26 16:19:12;;;;;;;;;7.00;7.00;;;;;28.39;43.84;101242.69;4933790;28;45366;-74
2022/08/26 16:21:39;;;;;;;;;7.67;7.00;;;;;28.44;43.80;101239.41;4935056;28;47024;-73
2022/08/26 16:24:05;;;;;;;;;3.33;3.33;;;;;28.61;45.08;101229.13;4935914;28;45387;-76
2022/08/26 16:26:32;;;;;;;;;4.67;4.00;;;;;28.77;44.83;101238.97;4936374;28;46250;-77
2022/08/26 16:29:00;;;;;;;;;4.67;4.67;;;;;28.89;44.37;101239.34;4935273;28;45453;-77
2022/08/26 16:31:25;;;;;;;;;5.33;5.33;;;;;28.95;43.98;101230.38;4936415;28;45725;-77
2022/08/26 16:33:50;;;;;;;;;3.33;3.33;;;;;29.05;43.51;101230.91;4936294;28;45441;-77
2022/08/26 16:36:16;;;;;;;;;5.00;5.00;;;;;29.13;42.95;101229.91;4935269;28;46043;-76
2022/08/26 16:38:48;;;;;;;;;4.67;4.67;;;;;29.15;42.86;101227.00;4933161;28;45966;-77
2022/08/26 16:41:15;;;;;;;;;4.00;4.00;;;;;29.22;43.17;101236.09;4931503;28;45457;-78
2022/08/26 16:43:40;;;;;;;;;9.00;7.33;;;;;29.24;42.79;101235.91;4935898;28;45372;-76
2022/08/26 16:46:06;;;;;;;;;5.67;5.67;;;;;29.30;43.43;101232.41;4935087;28;45425;-77
2022/08/26 16:48:32;;;;;;;;;3.33;3.33;;;;;29.35;43.04;101231.81;4935123;28;45406;-76
2022/08/26 16:50:57;;;;;;;;;5.00;5.00;;;;;29.42;42.36;101228.09;4935358;28;45410;-77
2022/08/26 16:53:22;;;;;;;;;5.67;5.67;;;;;29.46;42.77;101223.06;4935484;28;45340;-77
2022/08/26 16:55:48;;;;;;;;;4.33;4.33;;;;;29.44;42.54;101219.69;4935061;28;45749;-77
2022/08/26 16:58:14;;;;;;;;;5.33;4.00;;;;;29.48;41.84;101225.59;4935610;28;45280;-77
2022/08/26 17:00:39;;;;;;;;;5.67;5.67;;;;;29.48;42.54;101222.88;4934056;28;45732;-77
2022/08/26 17:03:05;;;;;;;;;4.67;3.33;;;;;29.47;42.66;101227.50;4935938;28;45609;-77
2022/08/26 17:05:30;;;;;;;;;4.67;4.67;;;;;29.48;42.25;101212.78;4935099;28;53775;-78
2022/08/26 17:07:57;;;;;;;;;6.00;6.00;;;;;29.54;42.37;101209.28;4935392;28;45465;-87
2022/08/26 17:10:25;;;;;;;;;7.33;6.67;;;;;29.58;41.59;101209.72;4934845;28;45665;-89
2022/08/26 17:12:50;;;;;;;;;6.67;6.67;;;;;29.60;41.22;101210.38;4935432;28;45488;-91
2022/08/26 17:15:16;;;;;;;;;6.00;6.00;;;;;29.59;41.60;101197.78;4936188;28;45468;-87
2022/08/26 17:17:42;;;;;;;;;7.67;7.00;;;;;29.58;42.09;101207.00;4932698;28;45806;-92
2022/08/26 17:20:11;;;;;;;;;5.67;5.67;;;;;29.54;42.82;101203.81;4936235;28;45515;-86
2022/08/26 17:22:42;;;;;;;;;4.67;4.67;;;;;29.51;42.67;101201.47;4949147;28;45558;-88
2022/08/26 17:25:22;;;;;;;;;6.00;6.00;;;;;29.49;43.13;101203.53;4951993;28;45526;-84
2022/08/26 17:27:48;;;;;;;;;6.33;6.33;;;;;29.48;42.81;101204.59;4934975;28;45695;-92
2022/08/26 17:30:13;;;;;;;;;5.00;5.00;;;;;29.46;43.09;101199.31;4932516;28;45489;-85
